createdAt,value
2022-09-21T00:01:18.628Z,95749.13
2022-09-21T00:03:46.234Z,95743.53
2022-09-21T00:06:19.078Z,95739.38
2022-09-21T00:08:46.550Z,95747.44
2022-09-21T00:11:15.638Z,95740.44
2022-09-21T00:13:45.885Z,95714.97
2022-09-21T00:16:14.092Z,95720.22
2022-09-21T00:18:40.796Z,95751.81
2022-09-21T00:21:09.995Z,95739.84
2022-09-21T00:23:37.891Z,95753.63
2022-09-21T00:26:24.876Z,95746.03
2022-09-21T00:28:59.802Z,95747.97
2022-09-21T00:31:27.578Z,95745.84
2022-09-21T00:33:54.443Z,95740.25
2022-09-21T00:36:23.757Z,95740.38
2022-09-21T00:38:53.143Z,95744.88
2022-09-21T00:41:20.007Z,95741.63
2022-09-21T00:44:08.513Z,95734.91
2022-09-21T00:46:39.154Z,95745.56
2022-09-21T00:49:06.079Z,95743.44
2022-09-21T00:51:32.782Z,95739.00
2022-09-21T00:54:08.017Z,95741.72
2022-09-21T00:56:37.007Z,95744.44
2022-09-21T00:59:04.723Z,95750.72
2022-09-21T01:01:31.602Z,95747.66
2022-09-21T01:03:58.500Z,95751.88
2022-09-21T01:06:26.855Z,95734.53
2022-09-21T01:08:59.139Z,95717.44
2022-09-21T01:11:55.170Z,95736.56
2022-09-21T01:14:40.445Z,95737.84
2022-09-21T01:17:33.379Z,95726.31
2022-09-21T01:20:06.138Z,95743.69
2022-09-21T01:23:14.408Z,95733.66
2022-09-21T01:26:05.188Z,95743.59
2022-09-21T01:28:41.783Z,95744.72
2022-09-21T01:31:15.833Z,95737.19
2022-09-21T01:33:54.740Z,95710.03
2022-09-21T01:36:26.257Z,95745.13
2022-09-21T01:38:58.864Z,95740.50
2022-09-21T01:41:29.296Z,95737.69
2022-09-21T01:44:08.571Z,95729.13
2022-09-21T01:46:37.301Z,95738.88
2022-09-21T01:49:13.391Z,95751.34
2022-09-21T01:51:46.870Z,95740.16
2022-09-21T01:54:21.895Z,95708.47
2022-09-21T01:56:55.641Z,95745.53
2022-09-21T01:59:43.167Z,95753.81
2022-09-21T02:02:15.842Z,95726.75
2022-09-21T02:04:42.955Z,95737.66
2022-09-21T02:07:09.903Z,95744.16
2022-09-21T02:09:37.879Z,95750.69
2022-09-21T02:12:05.666Z,95748.00
2022-09-21T02:14:34.129Z,95735.56
2022-09-21T02:17:18.892Z,95745.22
2022-09-21T02:19:54.421Z,95729.34
2022-09-21T02:22:36.227Z,95738.09
2022-09-21T02:25:12.005Z,95727.78
2022-09-21T02:27:41.320Z,95742.88
2022-09-21T02:30:20.029Z,95747.41
2022-09-21T02:33:13.348Z,95739.53
2022-09-21T02:35:50.405Z,95734.72
2022-09-21T02:38:47.059Z,95730.22
2022-09-21T02:41:27.861Z,95728.50
2022-09-21T02:44:11.143Z,95739.69
2022-09-21T02:46:43.615Z,95738.19
2022-09-21T02:49:19.681Z,95726.88
2022-09-21T02:51:50.843Z,95728.50
2022-09-21T02:54:22.729Z,95711.88
2022-09-21T02:56:51.552Z,95730.72
2022-09-21T02:59:18.613Z,95721.69
2022-09-21T03:01:45.301Z,95734.59
2022-09-21T03:04:12.038Z,95727.13
2022-09-21T03:06:38.779Z,95708.94
2022-09-21T03:09:05.385Z,95730.44
2022-09-21T03:11:32.061Z,95730.72
2022-09-21T03:14:00.554Z,95716.38
2022-09-21T03:16:27.114Z,95731.50
2022-09-21T03:18:53.720Z,95697.22
2022-09-21T03:21:20.339Z,95720.13
2022-09-21T03:23:46.936Z,95724.94
2022-09-21T03:26:13.472Z,95720.75
2022-09-21T03:28:40.135Z,95738.38
2022-09-21T03:31:07.083Z,95725.38
2022-09-21T03:33:33.705Z,95723.84
2022-09-21T03:36:00.277Z,95697.28
2022-09-21T03:38:27.062Z,95723.22
2022-09-21T03:40:57.865Z,95728.16
2022-09-21T03:43:25.300Z,95733.50
2022-09-21T03:45:52.242Z,95728.72
2022-09-21T03:48:20.098Z,95724.16
2022-09-21T03:50:46.639Z,95731.03
2022-09-21T03:53:13.386Z,95728.44
2022-09-21T03:55:40.160Z,95691.34
2022-09-21T03:58:06.846Z,95727.88
2022-09-21T04:00:34.202Z,95730.16
2022-09-21T04:03:02.171Z,95708.81
2022-09-21T04:05:29.058Z,95733.19
2022-09-21T04:07:56.851Z,95731.34
2022-09-21T04:10:33.229Z,95726.34
2022-09-21T04:13:02.136Z,95731.88
2022-09-21T04:15:29.590Z,95717.78
2022-09-21T04:17:56.548Z,95723.19
2022-09-21T04:20:23.638Z,95721.13
2022-09-21T04:22:51.577Z,95736.44
2022-09-21T04:25:18.420Z,95729.47
2022-09-21T04:27:45.084Z,95733.16
2022-09-21T04:30:14.184Z,95726.75
2022-09-21T04:32:40.867Z,95734.38
2022-09-21T04:35:07.950Z,95736.09
2022-09-21T04:37:34.661Z,95726.00
2022-09-21T04:40:01.580Z,95728.63
2022-09-21T04:42:28.486Z,95727.16
2022-09-21T04:44:56.231Z,95731.56
2022-09-21T04:47:23.714Z,95725.47
2022-09-21T04:49:50.443Z,95738.13
2022-09-21T04:52:19.101Z,95720.34
2022-09-21T04:54:46.550Z,95727.28
2022-09-21T04:57:14.172Z,95716.00
2022-09-21T04:59:40.735Z,95732.22
2022-09-21T05:02:07.347Z,95723.44
2022-09-21T05:04:33.894Z,95737.19
2022-09-21T05:07:00.493Z,95733.38
2022-09-21T05:09:45.797Z,95730.72
2022-09-21T05:12:12.439Z,95713.34
2022-09-21T05:14:39.249Z,95730.88
2022-09-21T05:17:05.949Z,95739.66
2022-09-21T05:19:32.539Z,95737.03
2022-09-21T05:21:59.296Z,95736.97
2022-09-21T05:24:28.067Z,95747.59
2022-09-21T05:26:54.719Z,95748.00
2022-09-21T05:29:21.815Z,95746.84
2022-09-21T05:31:54.088Z,95749.69
2022-09-21T05:34:48.441Z,95747.06
2022-09-21T05:37:43.194Z,95755.34
2022-09-21T05:40:12.693Z,95747.06
2022-09-21T05:42:39.863Z,95752.03
2022-09-21T05:45:08.341Z,95741.13
2022-09-21T05:47:58.545Z,95743.97
2022-09-21T05:50:34.581Z,95757.47
2022-09-21T05:53:24.421Z,95753.69
2022-09-21T05:56:03.036Z,95756.06
2022-09-21T05:58:37.457Z,95765.44
2022-09-21T06:01:22.980Z,95764.66
2022-09-21T06:03:50.320Z,95758.63
2022-09-21T06:06:19.115Z,95762.41
2022-09-21T06:08:45.975Z,95753.44
2022-09-21T06:11:13.984Z,95733.81
2022-09-21T06:13:41.769Z,95755.06
2022-09-21T06:16:08.890Z,95766.66
2022-09-21T06:18:40.316Z,95764.53
2022-09-21T06:21:08.235Z,95764.63
2022-09-21T06:23:35.307Z,95757.91
2022-09-21T06:26:02.225Z,95751.41
2022-09-21T06:28:29.833Z,95762.28
2022-09-21T06:30:58.294Z,95745.88
2022-09-21T06:33:26.750Z,95747.53
2022-09-21T06:35:55.546Z,95755.25
2022-09-21T06:38:22.772Z,95750.91
2022-09-21T06:40:50.479Z,95756.59
2022-09-21T06:43:17.517Z,95753.78
2022-09-21T06:45:44.595Z,95763.22
2022-09-21T06:48:11.216Z,95759.00
2022-09-21T06:50:39.150Z,95738.53
2022-09-21T06:53:05.707Z,95745.44
2022-09-21T06:55:32.764Z,95757.75
2022-09-21T06:58:04.011Z,95751.75
2022-09-21T07:00:31.274Z,95754.78
2022-09-21T07:02:58.177Z,95758.41
2022-09-21T07:05:25.073Z,95765.31
2022-09-21T07:07:56.830Z,95760.53
2022-09-21T07:10:23.677Z,95759.13
2022-09-21T07:12:51.702Z,95759.69
2022-09-21T07:15:21.578Z,95730.66
2022-09-21T07:17:52.363Z,95745.09
2022-09-21T07:20:19.561Z,95751.88
2022-09-21T07:22:46.195Z,95759.94
2022-09-21T07:25:12.831Z,95758.78
2022-09-21T07:27:39.477Z,95733.19
2022-09-21T07:30:07.368Z,95758.97
2022-09-21T07:32:34.297Z,95759.81
2022-09-21T07:35:01.039Z,95741.47
2022-09-21T07:37:28.833Z,95755.94
2022-09-21T07:39:55.492Z,95756.84
2022-09-21T07:42:22.955Z,95769.03
2022-09-21T07:44:50.942Z,95758.56
2022-09-21T07:47:17.813Z,95764.63
2022-09-21T07:49:45.830Z,95753.38
2022-09-21T07:52:12.465Z,95755.31
2022-09-21T07:54:39.036Z,95759.50
2022-09-21T07:57:24.341Z,95758.03
2022-09-21T07:59:51.234Z,95747.47
2022-09-21T08:02:18.127Z,95755.81
2022-09-21T08:04:45.330Z,95745.63
2022-09-21T08:07:12.656Z,95746.75
2022-09-21T08:09:39.311Z,95750.22
2022-09-21T08:12:05.978Z,95749.09
2022-09-21T08:14:32.736Z,95751.41
2022-09-21T08:16:59.296Z,95739.31
2022-09-21T08:19:26.729Z,95755.63
2022-09-21T08:21:57.536Z,95757.09
2022-09-21T08:24:26.952Z,95746.88
2022-09-21T08:26:55.865Z,95741.56
2022-09-21T08:29:23.946Z,95720.44
2022-09-21T08:31:50.851Z,95747.34
2022-09-21T08:34:17.551Z,95715.25
2022-09-21T08:36:44.169Z,95743.25
2022-09-21T08:39:10.967Z,95751.91
2022-09-21T08:41:40.943Z,95753.81
2022-09-21T08:44:17.074Z,95755.72
2022-09-21T08:46:46.988Z,95735.00
2022-09-21T08:49:21.549Z,95744.09
2022-09-21T08:51:54.629Z,95758.81
2022-09-21T08:54:29.246Z,95763.34
2022-09-21T08:57:11.757Z,95748.63
2022-09-21T08:59:43.210Z,95763.75
2022-09-21T09:02:35.746Z,95738.03
2022-09-21T09:05:39.835Z,95750.91
2022-09-21T09:08:41.907Z,95739.56
2022-09-21T09:11:15.033Z,95745.22
2022-09-21T09:13:59.890Z,95741.81
2022-09-21T09:16:48.070Z,95745.59
2022-09-21T09:19:38.681Z,95734.25
2022-09-21T09:22:07.826Z,95720.66
2022-09-21T09:24:43.944Z,95732.72
2022-09-21T09:27:22.778Z,95741.03
2022-09-21T09:30:17.047Z,95733.88
2022-09-21T09:32:44.075Z,95731.22
2022-09-21T09:35:22.377Z,95737.25
2022-09-21T09:37:50.859Z,95723.59
2022-09-21T09:40:31.004Z,95721.31
2022-09-21T09:43:20.603Z,95719.81
2022-09-21T09:45:53.101Z,95713.78
2022-09-21T09:48:19.730Z,95720.56
2022-09-21T09:50:46.691Z,95690.31
2022-09-21T09:53:19.226Z,95719.38
2022-09-21T09:55:49.760Z,95712.25
2022-09-21T09:58:23.203Z,95718.28
2022-09-21T10:00:58.350Z,95686.91
2022-09-21T10:03:30.174Z,95722.72
2022-09-21T10:05:57.003Z,95704.63
2022-09-21T10:08:44.854Z,95709.19
2022-09-21T10:11:13.554Z,95703.03
2022-09-21T10:13:42.801Z,95693.22
2022-09-21T10:16:14.665Z,95690.13
2022-09-21T10:18:49.458Z,95686.34
2022-09-21T10:21:18.030Z,95689.38
2022-09-21T10:23:57.454Z,95688.56
2022-09-21T10:26:24.403Z,95679.56
2022-09-21T10:29:21.865Z,95690.94
2022-09-21T10:32:14.837Z,95691.75
2022-09-21T10:34:59.841Z,95692.34
2022-09-21T10:37:37.495Z,95679.44
2022-09-21T10:40:05.765Z,95678.25
2022-09-21T10:42:53.950Z,95674.66
2022-09-21T10:45:24.717Z,95672.47
2022-09-21T10:47:56.249Z,95677.75
2022-09-21T10:50:53.225Z,95673.22
2022-09-21T10:53:31.807Z,95661.47
2022-09-21T10:56:17.337Z,95666.66
2022-09-21T10:59:20.680Z,95664.00
2022-09-21T11:01:50.303Z,95663.63
2022-09-21T11:04:31.066Z,95667.81
2022-09-21T11:07:15.428Z,95661.00
2022-09-21T11:10:06.810Z,95657.84
2022-09-21T11:12:47.446Z,95668.84
2022-09-21T11:15:21.864Z,95659.63
2022-09-21T11:21:20.355Z,95657.72
2022-09-21T11:24:20.062Z,95648.34
2022-09-21T11:26:56.331Z,95651.16
2022-09-21T11:29:49.353Z,95654.31
2022-09-21T11:32:25.225Z,95648.31
2022-09-21T11:35:19.919Z,95646.19
2022-09-21T11:37:49.698Z,95633.06
2022-09-21T11:40:40.650Z,95624.72
2022-09-21T11:43:25.783Z,95640.78
2022-09-21T11:46:40.726Z,95639.78
2022-09-21T11:49:42.617Z,95638.63
2022-09-21T11:52:31.332Z,95636.13
2022-09-21T11:55:16.058Z,95638.06
2022-09-21T11:58:12.817Z,95602.06
2022-09-21T12:01:06.058Z,95626.91
2022-09-21T12:03:44.972Z,95621.75
2022-09-21T12:06:27.178Z,95621.56
2022-09-21T12:09:09.517Z,95634.56
2022-09-21T12:11:48.702Z,95629.13
2022-09-21T12:14:25.227Z,95641.63
2022-09-21T12:17:21.289Z,95616.44
2022-09-21T12:20:12.267Z,95618.75
2022-09-21T12:22:45.698Z,95614.03
2022-09-21T12:25:23.916Z,95604.81
2022-09-21T12:27:54.050Z,95619.34
2022-09-21T12:30:22.838Z,95605.63
2022-09-21T12:33:19.312Z,95600.66
2022-09-21T12:36:02.409Z,95610.13
2022-09-21T12:38:40.972Z,95599.56
2022-09-21T12:41:22.975Z,95593.44
2022-09-21T12:43:52.147Z,95572.53
2022-09-21T12:46:24.168Z,95601.88
2022-09-21T12:48:50.880Z,95586.78
2022-09-21T12:51:17.443Z,95611.22
2022-09-21T12:53:50.930Z,95606.16
2022-09-21T12:56:37.537Z,95597.34
2022-09-21T12:59:26.046Z,95595.28
2022-09-21T13:02:24.639Z,95601.06
2022-09-21T13:05:42.524Z,95598.91
2022-09-21T13:08:09.035Z,95600.31
2022-09-21T13:10:46.151Z,95604.53
2022-09-21T13:13:36.662Z,95590.78
2022-09-21T13:16:05.636Z,95597.47
2022-09-21T13:18:38.756Z,95593.44
2022-09-21T13:21:22.089Z,95578.69
2022-09-21T13:24:23.700Z,95590.38
2022-09-21T13:27:05.198Z,95582.81
2022-09-21T13:29:35.017Z,95595.81
2022-09-21T13:32:22.050Z,95588.47
2022-09-21T13:34:51.632Z,95581.97
2022-09-21T13:37:18.163Z,95597.84
2022-09-21T13:39:50.744Z,95591.59
2022-09-21T13:42:29.585Z,95586.63
2022-09-21T13:45:00.192Z,95591.34
2022-09-21T13:47:33.946Z,95595.16
2022-09-21T13:50:04.599Z,95592.03
2022-09-21T13:52:40.236Z,95585.38
2022-09-21T13:55:27.990Z,95586.63
2022-09-21T13:57:58.944Z,95575.16
2022-09-21T14:00:42.691Z,95591.22
2022-09-21T14:03:27.240Z,95591.47
2022-09-21T14:06:09.230Z,95594.38
2022-09-21T14:08:41.888Z,95588.22
2022-09-21T14:11:37.281Z,95599.69
2022-09-21T14:14:31.784Z,95595.63
2022-09-21T14:17:02.744Z,95591.94
2022-09-21T14:19:33.253Z,95589.66
2022-09-21T14:22:05.879Z,95591.81
2022-09-21T14:24:42.075Z,95598.53
2022-09-21T14:27:26.045Z,95586.78
2022-09-21T14:29:59.925Z,95588.69
2022-09-21T14:32:35.520Z,95585.38
2022-09-21T14:35:11.049Z,95589.69
2022-09-21T14:37:43.250Z,95589.81
2022-09-21T14:44:01.317Z,95601.50
2022-09-21T14:46:40.430Z,95595.16
2022-09-21T14:49:26.747Z,95589.72
2022-09-21T14:52:15.303Z,95583.63
2022-09-21T14:55:11.939Z,95591.06
2022-09-21T14:57:45.736Z,95588.38
2022-09-21T15:00:28.625Z,95580.06
2022-09-21T15:03:30.560Z,95594.25
2022-09-21T15:06:38.370Z,95589.47
2022-09-21T15:09:48.832Z,95585.25
2022-09-21T15:12:23.505Z,95569.88
2022-09-21T15:15:23.556Z,95580.84
2022-09-21T15:17:59.873Z,95587.97
2022-09-21T15:20:29.527Z,95588.75
2022-09-21T15:22:58.574Z,95592.63
2022-09-21T15:25:29.056Z,95558.75
2022-09-21T15:27:55.753Z,95583.44
2022-09-21T15:30:28.726Z,95584.13
2022-09-21T15:33:01.018Z,95590.34
2022-09-21T15:35:30.703Z,95596.25
2022-09-21T15:38:00.933Z,95586.72
2022-09-21T15:40:30.212Z,95578.78
2022-09-21T15:43:06.541Z,95585.47
2022-09-21T15:45:54.784Z,95589.75
2022-09-21T15:48:26.591Z,95587.47
2022-09-21T15:50:58.970Z,95596.06
2022-09-21T15:53:31.147Z,95565.28
2022-09-21T15:59:55.126Z,95583.44
2022-09-21T16:02:25.436Z,95589.84
2022-09-21T16:04:53.770Z,95587.78
2022-09-21T16:07:42.405Z,95592.38
2022-09-21T16:10:45.175Z,95585.31
2022-09-21T16:13:43.137Z,95599.50
2022-09-21T16:16:14.185Z,95598.22
2022-09-21T16:18:52.316Z,95590.81
2022-09-21T16:21:32.500Z,95601.75
2022-09-21T16:24:10.928Z,95605.13
2022-09-21T16:26:40.050Z,95602.13
2022-09-21T16:29:23.688Z,95582.44
2022-09-21T16:31:51.240Z,95615.34
2022-09-21T16:34:46.066Z,95619.91
2022-09-21T16:37:26.909Z,95613.63
2022-09-21T16:39:55.663Z,95590.81
2022-09-21T16:42:24.132Z,95607.69
2022-09-21T16:44:50.811Z,95620.81
2022-09-21T16:47:25.263Z,95627.50
2022-09-21T16:49:57.097Z,95618.38
2022-09-21T16:52:24.806Z,95635.38
2022-09-21T16:54:51.894Z,95608.00
2022-09-21T16:57:18.828Z,95636.06
2022-09-21T16:59:45.475Z,95601.31
2022-09-21T17:02:14.461Z,95624.50
2022-09-21T17:04:41.396Z,95622.00
2022-09-21T17:07:13.639Z,95630.50
2022-09-21T17:09:47.681Z,95639.41
2022-09-21T17:12:16.940Z,95644.06
2022-09-21T17:14:46.969Z,95642.25
2022-09-21T17:17:22.877Z,95649.53
2022-09-21T17:19:51.958Z,95636.75
2022-09-21T17:22:19.329Z,95646.59
2022-09-21T17:24:54.926Z,95645.88
2022-09-21T17:27:24.371Z,95645.16
2022-09-21T17:29:53.772Z,95638.69
2022-09-21T17:32:22.598Z,95638.28
2022-09-21T17:35:12.519Z,95647.72
2022-09-21T17:37:39.176Z,95617.75
2022-09-21T17:40:10.656Z,95653.19
2022-09-21T17:42:48.387Z,95629.69
2022-09-21T17:45:32.567Z,95651.50
2022-09-21T17:47:59.643Z,95654.16
2022-09-21T17:50:28.147Z,95662.78
2022-09-21T17:53:14.839Z,95657.34
2022-09-21T17:56:09.406Z,95664.78
2022-09-21T17:58:45.434Z,95659.41
2022-09-21T18:01:27.360Z,95650.31
2022-09-21T18:03:54.285Z,95654.22
2022-09-21T18:06:21.979Z,95658.28
2022-09-21T18:08:49.204Z,95668.09
2022-09-21T18:11:27.426Z,95678.63
2022-09-21T18:14:21.895Z,95675.34
2022-09-21T18:16:54.482Z,95673.16
2022-09-21T18:19:59.814Z,95682.09
2022-09-21T18:22:32.337Z,95689.97
2022-09-21T18:24:59.123Z,95684.91
2022-09-21T18:27:26.123Z,95690.56
2022-09-21T18:29:53.090Z,95690.16
2022-09-21T18:32:39.725Z,95684.09
2022-09-21T18:35:23.876Z,95691.25
2022-09-21T18:38:08.723Z,95689.91
2022-09-21T18:40:50.509Z,95687.19
2022-09-21T18:43:48.491Z,95694.06
2022-09-21T18:46:41.630Z,95698.22
2022-09-21T18:49:35.799Z,95694.97
2022-09-21T18:52:28.652Z,95688.88
2022-09-21T18:54:55.430Z,95697.16
2022-09-21T18:57:23.506Z,95691.75
2022-09-21T18:59:50.504Z,95678.00
2022-09-21T19:02:20.355Z,95693.72
2022-09-21T19:04:48.976Z,95696.72
2022-09-21T19:07:18.526Z,95695.50
2022-09-21T19:09:52.134Z,95693.66
2022-09-21T19:12:31.858Z,95692.78
2022-09-21T19:15:56.074Z,95695.81
2022-09-21T19:18:46.342Z,95697.84
2022-09-21T19:21:28.201Z,95698.13
2022-09-21T19:24:07.020Z,95691.97
2022-09-21T19:26:59.437Z,95698.84
2022-09-21T19:29:50.442Z,95694.19
2022-09-21T19:32:32.532Z,95703.94
2022-09-21T19:35:15.220Z,95671.22
2022-09-21T19:37:41.893Z,95692.38
2022-09-21T19:40:09.213Z,95698.19
2022-09-21T19:42:56.347Z,95703.19
2022-09-21T19:45:32.882Z,95690.41
2022-09-21T19:48:04.803Z,95700.22
2022-09-21T19:50:46.906Z,95697.22
2022-09-21T19:53:33.075Z,95702.38
2022-09-21T19:56:24.286Z,95698.72
2022-09-21T19:59:09.858Z,95694.19
2022-09-21T20:01:40.265Z,95698.13
2022-09-21T20:04:07.746Z,95675.19
2022-09-21T20:06:44.025Z,95700.63
2022-09-21T20:09:24.580Z,95699.22
2022-09-21T20:12:21.515Z,95681.56
2022-09-21T20:14:53.961Z,95692.53
2022-09-21T20:17:36.698Z,95693.34
2022-09-21T20:20:13.770Z,95664.16
2022-09-21T20:22:41.069Z,95687.75
2022-09-21T20:25:24.244Z,95686.25
2022-09-21T20:27:58.563Z,95688.38
2022-09-21T20:30:28.552Z,95667.22
2022-09-21T20:32:59.944Z,95693.53
2022-09-21T20:35:29.691Z,95688.78
2022-09-21T20:38:01.938Z,95684.25
2022-09-21T20:40:29.385Z,95688.00
2022-09-21T20:42:57.458Z,95670.75
2022-09-21T20:45:24.894Z,95668.13
2022-09-21T20:47:54.351Z,95676.31
2022-09-21T20:50:22.323Z,95694.00
2022-09-21T20:52:49.053Z,95686.09
2022-09-21T20:55:17.643Z,95687.00
2022-09-21T20:57:44.797Z,95690.44
2022-09-21T21:00:14.707Z,95690.41
2022-09-21T21:02:41.766Z,95693.03
2022-09-21T21:10:34.368Z,95692.84
2022-09-21T21:13:04.569Z,95689.09
2022-09-21T21:15:32.080Z,95692.84
2022-09-21T21:17:58.771Z,95692.59
2022-09-21T21:20:26.168Z,95694.88
2022-09-21T21:22:53.878Z,95691.00
2022-09-21T21:25:20.590Z,95692.84
2022-09-21T21:27:47.229Z,95682.47
2022-09-21T21:30:14.007Z,95695.22
2022-09-21T21:32:40.925Z,95679.50
2022-09-21T21:35:08.057Z,95685.44
2022-09-21T21:37:34.683Z,95687.00
2022-09-21T21:40:02.320Z,95680.25
2022-09-21T21:42:29.613Z,95677.16
2022-09-21T21:44:56.501Z,95677.56
2022-09-21T21:47:40.203Z,95674.84
2022-09-21T21:50:09.333Z,95682.53
2022-09-21T21:52:35.954Z,95671.19
2022-09-21T21:55:02.621Z,95669.63
2022-09-21T21:57:29.321Z,95673.41
2022-09-21T21:59:55.919Z,95675.72
2022-09-21T22:02:22.677Z,95680.25
2022-09-21T22:04:49.351Z,95673.09
2022-09-21T22:07:15.919Z,95681.72
2022-09-21T22:09:42.478Z,95670.34
2022-09-21T22:12:09.146Z,95677.13
2022-09-21T22:14:35.858Z,95663.56
2022-09-21T22:17:02.688Z,95677.94
2022-09-21T22:19:29.516Z,95672.19
2022-09-21T22:21:56.188Z,95664.25
2022-09-21T22:24:23.013Z,95669.16
2022-09-21T22:26:50.055Z,95673.38
2022-09-21T22:29:17.507Z,95660.53
2022-09-21T22:31:49.511Z,95665.06
2022-09-21T22:34:16.867Z,95675.19
2022-09-21T22:36:43.926Z,95665.34
2022-09-21T22:39:11.211Z,95665.41
2022-09-21T22:41:40.232Z,95666.47
2022-09-21T22:44:07.938Z,95664.94
2022-09-21T22:46:34.931Z,95668.69
2022-09-21T22:49:02.171Z,95671.72
2022-09-21T22:51:29.653Z,95660.44
2022-09-21T22:53:56.567Z,95655.50
2022-09-21T22:56:26.387Z,95667.94
2022-09-21T22:58:55.414Z,95664.06
2022-09-21T23:01:26.429Z,95662.25
2022-09-21T23:03:56.555Z,95662.97
2022-09-21T23:06:26.725Z,95661.78
2022-09-21T23:08:56.268Z,95666.31
2022-09-21T23:11:29.070Z,95669.97
2022-09-21T23:13:56.784Z,95672.22
2022-09-21T23:16:24.947Z,95666.88
2022-09-21T23:18:52.290Z,95662.34
2022-09-21T23:21:22.497Z,95667.19
2022-09-21T23:23:49.659Z,95667.97
2022-09-21T23:26:19.214Z,95670.16
2022-09-21T23:28:52.313Z,95666.72
2022-09-21T23:31:19.307Z,95665.13
2022-09-21T23:33:51.588Z,95664.41
2022-09-21T23:36:21.113Z,95661.41
2022-09-21T23:38:49.188Z,95668.84
2022-09-21T23:41:27.571Z,95667.34
2022-09-21T23:43:54.859Z,95660.16
2022-09-21T23:46:24.676Z,95659.75
2022-09-21T23:48:51.816Z,95657.94
2022-09-21T23:51:19.813Z,95656.72
2022-09-21T23:53:47.445Z,95666.94
2022-09-21T23:56:19.821Z,95669.50
2022-09-21T23:58:47.138Z,95666.31
